sensor_id;sensor_type;location;lat;lon;timestamp;P1;durP1;ratioP1;P2;durP2;ratioP2
13002;SDS011;6566;57.702;11.984;2022-11-25T00:01:25;20.92;;;12.38;;
13002;SDS011;6566;57.702;11.984;2022-11-25T00:03:52;25.17;;;13.60;;
13002;SDS011;6566;57.702;11.984;2022-11-25T00:06:24;26.75;;;14.02;;
13002;SDS011;6566;57.702;11.984;2022-11-25T00:08:52;23.35;;;13.68;;
13002;SDS011;6566;57.702;11.984;2022-11-25T00:11:18;23.70;;;13.20;;
13002;SDS011;6566;57.702;11.984;2022-11-25T00:13:43;23.02;;;13.65;;
13002;SDS011;6566;57.702;11.984;2022-11-25T00:16:10;25.33;;;13.30;;
13002;SDS011;6566;57.702;11.984;2022-11-25T00:18:36;24.08;;;13.77;;
13002;SDS011;6566;57.702;11.984;2022-11-25T00:21:08;24.92;;;13.82;;
13002;SDS011;6566;57.702;11.984;2022-11-25T00:23:34;25.05;;;13.07;;
13002;SDS011;6566;57.702;11.984;2022-11-25T00:28:34;24.02;;;12.63;;
13002;SDS011;6566;57.702;11.984;2022-11-25T00:31:03;23.17;;;12.70;;
13002;SDS011;6566;57.702;11.984;2022-11-25T00:33:29;25.85;;;13.93;;
13002;SDS011;6566;57.702;11.984;2022-11-25T00:35:54;22.20;;;12.35;;
13002;SDS011;6566;57.702;11.984;2022-11-25T00:38:19;22.35;;;12.95;;
13002;SDS011;6566;57.702;11.984;2022-11-25T00:40:44;20.85;;;12.48;;
13002;SDS011;6566;57.702;11.984;2022-11-25T00:43:29;23.80;;;13.65;;
13002;SDS011;6566;57.702;11.984;2022-11-25T00:46:13;23.08;;;12.38;;
13002;SDS011;6566;57.702;11.984;2022-11-25T00:48:39;23.00;;;13.23;;
13002;SDS011;6566;57.702;11.984;2022-11-25T00:51:04;21.10;;;12.55;;
13002;SDS011;6566;57.702;11.984;2022-11-25T00:53:29;20.45;;;12.48;;
13002;SDS011;6566;57.702;11.984;2022-11-25T00:55:59;24.05;;;12.68;;
13002;SDS011;6566;57.702;11.984;2022-11-25T00:58:37;21.73;;;12.80;;
13002;SDS011;6566;57.702;11.984;2022-11-25T01:01:02;24.77;;;13.82;;
13002;SDS011;6566;57.702;11.984;2022-11-25T01:03:27;22.40;;;13.27;;
13002;SDS011;6566;57.702;11.984;2022-11-25T01:05:53;23.23;;;13.20;;
13002;SDS011;6566;57.702;11.984;2022-11-25T01:08:18;22.00;;;12.68;;
13002;SDS011;6566;57.702;11.984;2022-11-25T01:10:43;21.60;;;13.30;;
13002;SDS011;6566;57.702;11.984;2022-11-25T01:13:08;24.17;;;13.40;;
13002;SDS011;6566;57.702;11.984;2022-11-25T01:15:35;21.65;;;13.50;;
13002;SDS011;6566;57.702;11.984;2022-11-25T01:18:00;23.67;;;13.27;;
13002;SDS011;6566;57.702;11.984;2022-11-25T01:20:25;21.95;;;13.38;;
13002;SDS011;6566;57.702;11.984;2022-11-25T01:22:51;24.73;;;13.13;;
13002;SDS011;6566;57.702;11.984;2022-11-25T01:25:17;22.00;;;13.27;;
13002;SDS011;6566;57.702;11.984;2022-11-25T01:27:42;22.73;;;12.57;;
13002;SDS011;6566;57.702;11.984;2022-11-25T01:30:08;23.88;;;13.52;;
13002;SDS011;6566;57.702;11.984;2022-11-25T01:32:33;23.80;;;12.80;;
13002;SDS011;6566;57.702;11.984;2022-11-25T01:34:58;23.95;;;12.73;;
13002;SDS011;6566;57.702;11.984;2022-11-25T01:37:23;25.52;;;14.27;;
13002;SDS011;6566;57.702;11.984;2022-11-25T01:39:49;21.85;;;13.23;;
13002;SDS011;6566;57.702;11.984;2022-11-25T01:42:14;24.20;;;13.32;;
13002;SDS011;6566;57.702;11.984;2022-11-25T01:44:41;23.33;;;13.52;;
13002;SDS011;6566;57.702;11.984;2022-11-25T01:52:02;24.15;;;13.40;;
13002;SDS011;6566;57.702;11.984;2022-11-25T01:54:32;27.92;;;14.10;;
13002;SDS011;6566;57.702;11.984;2022-11-25T01:57:00;24.52;;;13.23;;
13002;SDS011;6566;57.702;11.984;2022-11-25T01:59:28;22.02;;;12.60;;
13002;SDS011;6566;57.702;11.984;2022-11-25T02:01:54;23.65;;;12.50;;
13002;SDS011;6566;57.702;11.984;2022-11-25T02:04:21;22.23;;;13.13;;
13002;SDS011;6566;57.702;11.984;2022-11-25T02:06:58;22.92;;;12.73;;
13002;SDS011;6566;57.702;11.984;2022-11-25T02:09:25;20.58;;;12.57;;
13002;SDS011;6566;57.702;11.984;2022-11-25T02:11:51;21.33;;;12.45;;
13002;SDS011;6566;57.702;11.984;2022-11-25T02:14:17;23.52;;;13.63;;
13002;SDS011;6566;57.702;11.984;2022-11-25T02:16:44;23.85;;;12.48;;
13002;SDS011;6566;57.702;11.984;2022-11-25T02:19:13;19.42;;;11.77;;
13002;SDS011;6566;57.702;11.984;2022-11-25T02:21:44;23.95;;;12.80;;
13002;SDS011;6566;57.702;11.984;2022-11-25T02:24:23;24.40;;;13.18;;
13002;SDS011;6566;57.702;11.984;2022-11-25T02:26:51;20.95;;;11.60;;
13002;SDS011;6566;57.702;11.984;2022-11-25T02:29:17;26.77;;;12.68;;
13002;SDS011;6566;57.702;11.984;2022-11-25T02:31:43;22.63;;;12.60;;
13002;SDS011;6566;57.702;11.984;2022-11-25T02:34:08;18.52;;;11.38;;
13002;SDS011;6566;57.702;11.984;2022-11-25T02:36:34;21.35;;;11.93;;
13002;SDS011;6566;57.702;11.984;2022-11-25T02:39:00;24.48;;;12.77;;
13002;SDS011;6566;57.702;11.984;2022-11-25T02:41:32;21.60;;;11.95;;
13002;SDS011;6566;57.702;11.984;2022-11-25T02:43:58;23.30;;;12.07;;
13002;SDS011;6566;57.702;11.984;2022-11-25T02:46:25;21.27;;;12.15;;
13002;SDS011;6566;57.702;11.984;2022-11-25T02:48:51;21.15;;;11.82;;
13002;SDS011;6566;57.702;11.984;2022-11-25T02:51:17;23.42;;;11.48;;
13002;SDS011;6566;57.702;11.984;2022-11-25T02:53:43;23.08;;;11.80;;
13002;SDS011;6566;57.702;11.984;2022-11-25T02:56:09;22.83;;;12.38;;
13002;SDS011;6566;57.702;11.984;2022-11-25T02:58:34;20.83;;;11.45;;
13002;SDS011;6566;57.702;11.984;2022-11-25T03:00:59;20.45;;;11.48;;
13002;SDS011;6566;57.702;11.984;2022-11-25T03:03:25;21.88;;;11.85;;
13002;SDS011;6566;57.702;11.984;2022-11-25T03:05:50;19.67;;;11.05;;
13002;SDS011;6566;57.702;11.984;2022-11-25T03:08:15;18.42;;;10.80;;
13002;SDS011;6566;57.702;11.984;2022-11-25T03:10:41;17.83;;;10.68;;
13002;SDS011;6566;57.702;11.984;2022-11-25T03:13:06;21.58;;;10.82;;
13002;SDS011;6566;57.702;11.984;2022-11-25T03:15:32;19.33;;;10.18;;
13002;SDS011;6566;57.702;11.984;2022-11-25T03:17:57;18.17;;;10.00;;
13002;SDS011;6566;57.702;11.984;2022-11-25T03:20:23;19.17;;;10.38;;
13002;SDS011;6566;57.702;11.984;2022-11-25T03:22:48;17.40;;;10.18;;
13002;SDS011;6566;57.702;11.984;2022-11-25T03:25:14;18.02;;;10.20;;
13002;SDS011;6566;57.702;11.984;2022-11-25T03:27:39;15.63;;;9.50;;
13002;SDS011;6566;57.702;11.984;2022-11-25T03:30:07;17.00;;;9.38;;
13002;SDS011;6566;57.702;11.984;2022-11-25T03:32:33;16.40;;;9.18;;
13002;SDS011;6566;57.702;11.984;2022-11-25T03:34:58;16.13;;;9.23;;
13002;SDS011;6566;57.702;11.984;2022-11-25T03:37:23;16.10;;;9.35;;
13002;SDS011;6566;57.702;11.984;2022-11-25T03:39:49;15.77;;;8.82;;
13002;SDS011;6566;57.702;11.984;2022-11-25T03:42:14;16.92;;;9.18;;
13002;SDS011;6566;57.702;11.984;2022-11-25T03:44:39;14.43;;;8.50;;
13002;SDS011;6566;57.702;11.984;2022-11-25T03:47:04;14.20;;;9.07;;
13002;SDS011;6566;57.702;11.984;2022-11-25T03:49:30;15.00;;;8.13;;
13002;SDS011;6566;57.702;11.984;2022-11-25T03:51:55;13.85;;;8.55;;
13002;SDS011;6566;57.702;11.984;2022-11-25T03:54:20;16.25;;;8.77;;
13002;SDS011;6566;57.702;11.984;2022-11-25T03:56:45;14.98;;;9.35;;
13002;SDS011;6566;57.702;11.984;2022-11-25T03:59:11;13.50;;;8.35;;
13002;SDS011;6566;57.702;11.984;2022-11-25T04:01:36;13.05;;;8.15;;
13002;SDS011;6566;57.702;11.984;2022-11-25T04:04:01;16.50;;;8.82;;
13002;SDS011;6566;57.702;11.984;2022-11-25T04:06:27;15.77;;;8.70;;
13002;SDS011;6566;57.702;11.984;2022-11-25T04:08:52;13.90;;;8.55;;
13002;SDS011;6566;57.702;11.984;2022-11-25T04:11:17;14.68;;;8.10;;
13002;SDS011;6566;57.702;11.984;2022-11-25T04:13:42;12.80;;;7.97;;
13002;SDS011;6566;57.702;11.984;2022-11-25T04:16:18;12.88;;;7.75;;
13002;SDS011;6566;57.702;11.984;2022-11-25T04:18:46;14.65;;;8.18;;
13002;SDS011;6566;57.702;11.984;2022-11-25T04:21:11;14.15;;;8.43;;
13002;SDS011;6566;57.702;11.984;2022-11-25T04:23:36;13.93;;;8.68;;
13002;SDS011;6566;57.702;11.984;2022-11-25T04:26:02;15.27;;;8.65;;
13002;SDS011;6566;57.702;11.984;2022-11-25T04:28:27;14.23;;;8.07;;
13002;SDS011;6566;57.702;11.984;2022-11-25T04:30:52;16.60;;;8.80;;
13002;SDS011;6566;57.702;11.984;2022-11-25T04:33:17;14.27;;;7.95;;
13002;SDS011;6566;57.702;11.984;2022-11-25T04:35:43;14.38;;;8.77;;
13002;SDS011;6566;57.702;11.984;2022-11-25T04:38:08;15.10;;;8.35;;
13002;SDS011;6566;57.702;11.984;2022-11-25T04:40:33;12.60;;;7.80;;
13002;SDS011;6566;57.702;11.984;2022-11-25T04:42:58;14.27;;;7.50;;
13002;SDS011;6566;57.702;11.984;2022-11-25T04:45:23;14.73;;;8.88;;
13002;SDS011;6566;57.702;11.984;2022-11-25T04:47:49;15.35;;;8.20;;
13002;SDS011;6566;57.702;11.984;2022-11-25T04:50:15;15.13;;;7.97;;
13002;SDS011;6566;57.702;11.984;2022-11-25T04:52:42;12.38;;;7.60;;
13002;SDS011;6566;57.702;11.984;2022-11-25T04:55:08;13.07;;;7.80;;
13002;SDS011;6566;57.702;11.984;2022-11-25T04:57:33;13.65;;;7.93;;
13002;SDS011;6566;57.702;11.984;2022-11-25T04:59:58;13.95;;;8.10;;
13002;SDS011;6566;57.702;11.984;2022-11-25T05:02:24;13.48;;;8.15;;
13002;SDS011;6566;57.702;11.984;2022-11-25T05:04:50;16.10;;;7.57;;
13002;SDS011;6566;57.702;11.984;2022-11-25T05:07:16;12.88;;;8.20;;
13002;SDS011;6566;57.702;11.984;2022-11-25T05:09:42;14.50;;;8.35;;
13002;SDS011;6566;57.702;11.984;2022-11-25T05:12:10;13.90;;;8.02;;
13002;SDS011;6566;57.702;11.984;2022-11-25T05:14:35;14.20;;;7.82;;
13002;SDS011;6566;57.702;11.984;2022-11-25T05:17:01;10.75;;;7.20;;
13002;SDS011;6566;57.702;11.984;2022-11-25T05:19:26;12.73;;;7.40;;
13002;SDS011;6566;57.702;11.984;2022-11-25T05:21:52;16.65;;;7.82;;
13002;SDS011;6566;57.702;11.984;2022-11-25T05:24:17;13.18;;;8.00;;
13002;SDS011;6566;57.702;11.984;2022-11-25T05:26:42;14.93;;;8.35;;
13002;SDS011;6566;57.702;11.984;2022-11-25T05:29:08;14.40;;;7.35;;
13002;SDS011;6566;57.702;11.984;2022-11-25T05:31:33;12.55;;;7.72;;
13002;SDS011;6566;57.702;11.984;2022-11-25T05:33:59;14.73;;;7.75;;
13002;SDS011;6566;57.702;11.984;2022-11-25T05:36:25;12.02;;;7.30;;
13002;SDS011;6566;57.702;11.984;2022-11-25T05:38:50;14.10;;;7.95;;
13002;SDS011;6566;57.702;11.984;2022-11-25T05:41:15;12.27;;;7.53;;
13002;SDS011;6566;57.702;11.984;2022-11-25T05:43:40;12.80;;;7.80;;
13002;SDS011;6566;57.702;11.984;2022-11-25T05:46:07;13.60;;;8.05;;
13002;SDS011;6566;57.702;11.984;2022-11-25T05:48:32;11.77;;;7.55;;
13002;SDS011;6566;57.702;11.984;2022-11-25T05:50:58;11.50;;;7.03;;
13002;SDS011;6566;57.702;11.984;2022-11-25T05:53:23;14.13;;;7.55;;
13002;SDS011;6566;57.702;11.984;2022-11-25T05:55:56;12.52;;;6.93;;
13002;SDS011;6566;57.702;11.984;2022-11-25T05:58:22;10.30;;;6.70;;
13002;SDS011;6566;57.702;11.984;2022-11-25T06:00:47;14.55;;;8.40;;
13002;SDS011;6566;57.702;11.984;2022-11-25T06:03:12;11.60;;;7.20;;
13002;SDS011;6566;57.702;11.984;2022-11-25T06:05:38;11.45;;;6.85;;
13002;SDS011;6566;57.702;11.984;2022-11-25T06:08:05;11.27;;;7.38;;
13002;SDS011;6566;57.702;11.984;2022-11-25T06:10:30;13.07;;;7.25;;
13002;SDS011;6566;57.702;11.984;2022-11-25T06:12:56;11.48;;;6.93;;
13002;SDS011;6566;57.702;11.984;2022-11-25T06:15:21;11.05;;;6.82;;
13002;SDS011;6566;57.702;11.984;2022-11-25T06:17:46;11.95;;;6.80;;
13002;SDS011;6566;57.702;11.984;2022-11-25T06:20:11;11.07;;;6.90;;
13002;SDS011;6566;57.702;11.984;2022-11-25T06:22:37;10.43;;;7.18;;
13002;SDS011;6566;57.702;11.984;2022-11-25T06:25:02;12.85;;;7.05;;
13002;SDS011;6566;57.702;11.984;2022-11-25T06:27:27;9.85;;;6.50;;
13002;SDS011;6566;57.702;11.984;2022-11-25T06:29:53;9.93;;;6.22;;
13002;SDS011;6566;57.702;11.984;2022-11-25T06:32:18;10.00;;;6.60;;
13002;SDS011;6566;57.702;11.984;2022-11-25T06:34:43;9.73;;;6.43;;
13002;SDS011;6566;57.702;11.984;2022-11-25T06:37:08;10.35;;;6.10;;
13002;SDS011;6566;57.702;11.984;2022-11-25T06:39:34;10.57;;;6.40;;
13002;SDS011;6566;57.702;11.984;2022-11-25T06:41:59;8.88;;;5.97;;
13002;SDS011;6566;57.702;11.984;2022-11-25T06:44:24;8.73;;;6.25;;
13002;SDS011;6566;57.702;11.984;2022-11-25T06:46:49;12.27;;;7.07;;
13002;SDS011;6566;57.702;11.984;2022-11-25T06:49:15;9.48;;;6.40;;
13002;SDS011;6566;57.702;11.984;2022-11-25T06:51:40;10.40;;;6.18;;
13002;SDS011;6566;57.702;11.984;2022-11-25T06:54:05;11.23;;;6.65;;
13002;SDS011;6566;57.702;11.984;2022-11-25T06:56:32;9.10;;;5.95;;
13002;SDS011;6566;57.702;11.984;2022-11-25T06:58:57;10.57;;;6.32;;
13002;SDS011;6566;57.702;11.984;2022-11-25T07:01:24;10.73;;;6.40;;
13002;SDS011;6566;57.702;11.984;2022-11-25T07:03:59;8.13;;;5.80;;
13002;SDS011;6566;57.702;11.984;2022-11-25T07:06:25;7.97;;;5.25;;
13002;SDS011;6566;57.702;11.984;2022-11-25T07:08:50;8.43;;;5.43;;
13002;SDS011;6566;57.702;11.984;2022-11-25T07:13:43;9.68;;;5.60;;
13002;SDS011;6566;57.702;11.984;2022-11-25T07:16:09;11.85;;;6.20;;
13002;SDS011;6566;57.702;11.984;2022-11-25T07:18:35;8.98;;;5.32;;
13002;SDS011;6566;57.702;11.984;2022-11-25T07:21:02;7.72;;;5.35;;
13002;SDS011;6566;57.702;11.984;2022-11-25T07:23:27;9.35;;;5.45;;
13002;SDS011;6566;57.702;11.984;2022-11-25T07:25:53;7.03;;;4.85;;
13002;SDS011;6566;57.702;11.984;2022-11-25T07:28:18;7.68;;;5.43;;
13002;SDS011;6566;57.702;11.984;2022-11-25T07:30:43;8.32;;;5.53;;
13002;SDS011;6566;57.702;11.984;2022-11-25T07:33:08;6.53;;;4.85;;
13002;SDS011;6566;57.702;11.984;2022-11-25T07:35:34;8.02;;;5.43;;
13002;SDS011;6566;57.702;11.984;2022-11-25T07:37:59;7.53;;;4.95;;
13002;SDS011;6566;57.702;11.984;2022-11-25T07:40:24;6.20;;;4.45;;
13002;SDS011;6566;57.702;11.984;2022-11-25T07:42:50;8.23;;;4.90;;
13002;SDS011;6566;57.702;11.984;2022-11-25T07:45:15;7.60;;;5.18;;
13002;SDS011;6566;57.702;11.984;2022-11-25T07:47:40;9.00;;;5.05;;
13002;SDS011;6566;57.702;11.984;2022-11-25T07:50:06;6.45;;;4.43;;
13002;SDS011;6566;57.702;11.984;2022-11-25T07:52:31;7.07;;;4.28;;
13002;SDS011;6566;57.702;11.984;2022-11-25T07:54:57;7.38;;;4.85;;
13002;SDS011;6566;57.702;11.984;2022-11-25T07:57:22;6.82;;;4.38;;
13002;SDS011;6566;57.702;11.984;2022-11-25T07:59:47;7.65;;;4.45;;
13002;SDS011;6566;57.702;11.984;2022-11-25T08:02:12;5.47;;;4.38;;
13002;SDS011;6566;57.702;11.984;2022-11-25T08:04:38;7.68;;;4.68;;
13002;SDS011;6566;57.702;11.984;2022-11-25T08:07:03;6.57;;;4.07;;
13002;SDS011;6566;57.702;11.984;2022-11-25T08:09:28;6.90;;;4.80;;
13002;SDS011;6566;57.702;11.984;2022-11-25T08:11:53;7.47;;;4.75;;
13002;SDS011;6566;57.702;11.984;2022-11-25T08:14:19;8.68;;;4.53;;
13002;SDS011;6566;57.702;11.984;2022-11-25T08:16:45;6.30;;;4.90;;
13002;SDS011;6566;57.702;11.984;2022-11-25T08:19:11;8.20;;;4.85;;
13002;SDS011;6566;57.702;11.984;2022-11-25T08:21:37;6.80;;;4.50;;
13002;SDS011;6566;57.702;11.984;2022-11-25T08:24:03;5.70;;;4.18;;
13002;SDS011;6566;57.702;11.984;2022-11-25T08:26:30;8.00;;;4.70;;
13002;SDS011;6566;57.702;11.984;2022-11-25T08:28:57;7.00;;;4.80;;
13002;SDS011;6566;57.702;11.984;2022-11-25T08:31:24;7.05;;;4.70;;
13002;SDS011;6566;57.702;11.984;2022-11-25T08:33:49;5.85;;;4.65;;
13002;SDS011;6566;57.702;11.984;2022-11-25T08:36:15;6.63;;;4.85;;
13002;SDS011;6566;57.702;11.984;2022-11-25T08:38:40;6.22;;;4.43;;
13002;SDS011;6566;57.702;11.984;2022-11-25T08:41:20;6.00;;;4.40;;
13002;SDS011;6566;57.702;11.984;2022-11-25T08:43:45;8.00;;;5.10;;
13002;SDS011;6566;57.702;11.984;2022-11-25T08:46:13;6.05;;;4.72;;
13002;SDS011;6566;57.702;11.984;2022-11-25T08:48:38;5.93;;;4.32;;
13002;SDS011;6566;57.702;11.984;2022-11-25T08:51:08;7.32;;;4.45;;
13002;SDS011;6566;57.702;11.984;2022-11-25T08:53:35;5.47;;;4.15;;
13002;SDS011;6566;57.702;11.984;2022-11-25T08:56:00;5.60;;;4.35;;
13002;SDS011;6566;57.702;11.984;2022-11-25T08:58:25;5.90;;;3.67;;
13002;SDS011;6566;57.702;11.984;2022-11-25T09:00:51;5.32;;;3.50;;
13002;SDS011;6566;57.702;11.984;2022-11-25T09:03:16;6.40;;;4.30;;
13002;SDS011;6566;57.702;11.984;2022-11-25T09:05:41;5.68;;;4.28;;
13002;SDS011;6566;57.702;11.984;2022-11-25T09:08:07;4.95;;;3.65;;
13002;SDS011;6566;57.702;11.984;2022-11-25T09:10:33;6.38;;;3.90;;
13002;SDS011;6566;57.702;11.984;2022-11-25T09:12:58;7.15;;;4.10;;
13002;SDS011;6566;57.702;11.984;2022-11-25T09:15:24;4.80;;;3.63;;
13002;SDS011;6566;57.702;11.984;2022-11-25T09:17:56;4.65;;;3.63;;
13002;SDS011;6566;57.702;11.984;2022-11-25T09:20:21;4.97;;;4.05;;
13002;SDS011;6566;57.702;11.984;2022-11-25T09:22:46;5.38;;;3.90;;
13002;SDS011;6566;57.702;11.984;2022-11-25T09:25:12;6.43;;;3.88;;
13002;SDS011;6566;57.702;11.984;2022-11-25T09:27:37;4.88;;;3.63;;
13002;SDS011;6566;57.702;11.984;2022-11-25T09:30:02;5.00;;;3.72;;
13002;SDS011;6566;57.702;11.984;2022-11-25T09:32:27;5.50;;;3.63;;
13002;SDS011;6566;57.702;11.984;2022-11-25T09:34:54;5.30;;;4.20;;
13002;SDS011;6566;57.702;11.984;2022-11-25T09:37:19;5.15;;;4.00;;
13002;SDS011;6566;57.702;11.984;2022-11-25T09:39:44;4.47;;;3.60;;
13002;SDS011;6566;57.702;11.984;2022-11-25T09:42:17;4.75;;;3.55;;
13002;SDS011;6566;57.702;11.984;2022-11-25T09:48:11;5.05;;;3.60;;
13002;SDS011;6566;57.702;11.984;2022-11-25T09:55:36;6.03;;;4.18;;
13002;SDS011;6566;57.702;11.984;2022-11-25T10:00:39;6.05;;;4.15;;
13002;SDS011;6566;57.702;11.984;2022-11-25T10:03:08;5.28;;;4.25;;
13002;SDS011;6566;57.702;11.984;2022-11-25T10:08:21;7.25;;;4.53;;
13002;SDS011;6566;57.702;11.984;2022-11-25T10:10:49;5.35;;;4.15;;
13002;SDS011;6566;57.702;11.984;2022-11-25T10:13:26;5.82;;;3.83;;
13002;SDS011;6566;57.702;11.984;2022-11-25T10:15:52;7.15;;;4.85;;
13002;SDS011;6566;57.702;11.984;2022-11-25T10:18:26;5.47;;;4.50;;
13002;SDS011;6566;57.702;11.984;2022-11-25T10:20:54;6.65;;;4.72;;
13002;SDS011;6566;57.702;11.984;2022-11-25T10:23:32;7.53;;;4.32;;
13002;SDS011;6566;57.702;11.984;2022-11-25T10:26:07;6.93;;;4.93;;
13002;SDS011;6566;57.702;11.984;2022-11-25T10:28:35;6.65;;;5.18;;
13002;SDS011;6566;57.702;11.984;2022-11-25T10:33:51;7.97;;;4.78;;
13002;SDS011;6566;57.702;11.984;2022-11-25T10:36:19;8.15;;;5.07;;
13002;SDS011;6566;57.702;11.984;2022-11-25T10:41:20;7.68;;;5.50;;
13002;SDS011;6566;57.702;11.984;2022-11-25T10:43:47;5.97;;;4.63;;
13002;SDS011;6566;57.702;11.984;2022-11-25T10:54:12;7.20;;;5.10;;
13002;SDS011;6566;57.702;11.984;2022-11-25T10:56:41;7.88;;;5.05;;
13002;SDS011;6566;57.702;11.984;2022-11-25T10:59:40;7.88;;;5.00;;
13002;SDS011;6566;57.702;11.984;2022-11-25T11:04:56;6.55;;;4.88;;
13002;SDS011;6566;57.702;11.984;2022-11-25T11:07:22;8.90;;;5.28;;
13002;SDS011;6566;57.702;11.984;2022-11-25T11:09:47;7.03;;;5.00;;
13002;SDS011;6566;57.702;11.984;2022-11-25T11:12:17;9.82;;;5.60;;
13002;SDS011;6566;57.702;11.984;2022-11-25T11:14:43;7.70;;;5.30;;
13002;SDS011;6566;57.702;11.984;2022-11-25T11:17:20;7.88;;;5.15;;
13002;SDS011;6566;57.702;11.984;2022-11-25T11:20:30;7.93;;;4.93;;
13002;SDS011;6566;57.702;11.984;2022-11-25T11:22:43;6.55;;;4.45;;
13002;SDS011;6566;57.702;11.984;2022-11-25T11:27:43;6.85;;;4.75;;
13002;SDS011;6566;57.702;11.984;2022-11-25T11:30:09;6.82;;;4.40;;
13002;SDS011;6566;57.702;11.984;2022-11-25T11:32:35;5.65;;;4.45;;
13002;SDS011;6566;57.702;11.984;2022-11-25T11:35:13;8.18;;;4.55;;
13002;SDS011;6566;57.702;11.984;2022-11-25T11:37:46;8.02;;;4.93;;
13002;SDS011;6566;57.702;11.984;2022-11-25T12:04:44;5.82;;;4.35;;
13002;SDS011;6566;57.702;11.984;2022-11-25T12:07:23;12.68;;;5.88;;
13002;SDS011;6566;57.702;11.984;2022-11-25T12:09:56;6.75;;;4.50;;
13002;SDS011;6566;57.702;11.984;2022-11-25T12:12:37;7.03;;;4.82;;
13002;SDS011;6566;57.702;11.984;2022-11-25T12:15:23;10.32;;;4.28;;
13002;SDS011;6566;57.702;11.984;2022-11-25T12:17:52;6.72;;;4.28;;
13002;SDS011;6566;57.702;11.984;2022-11-25T12:20:27;5.40;;;4.10;;
13002;SDS011;6566;57.702;11.984;2022-11-25T12:23:01;7.05;;;4.32;;
13002;SDS011;6566;57.702;11.984;2022-11-25T12:25:38;6.63;;;4.65;;
13002;SDS011;6566;57.702;11.984;2022-11-25T12:28:11;6.75;;;5.18;;
13002;SDS011;6566;57.702;11.984;2022-11-25T12:30:50;15.65;;;5.32;;
13002;SDS011;6566;57.702;11.984;2022-11-25T12:33:22;10.13;;;4.22;;
13002;SDS011;6566;57.702;11.984;2022-11-25T12:40:46;6.37;;;4.37;;
13002;SDS011;6566;57.702;11.984;2022-11-25T12:45:42;7.90;;;5.13;;
13002;SDS011;6566;57.702;11.984;2022-11-25T12:48:09;4.63;;;4.07;;
13002;SDS011;6566;57.702;11.984;2022-11-25T12:53:27;7.78;;;4.22;;
13002;SDS011;6566;57.702;11.984;2022-11-25T12:55:57;6.00;;;4.60;;
13002;SDS011;6566;57.702;11.984;2022-11-25T12:58:29;10.23;;;4.55;;
13002;SDS011;6566;57.702;11.984;2022-11-25T13:03:38;8.48;;;5.00;;
13002;SDS011;6566;57.702;11.984;2022-11-25T13:08:55;6.35;;;4.03;;
13002;SDS011;6566;57.702;11.984;2022-11-25T13:11:43;10.88;;;4.65;;
13002;SDS011;6566;57.702;11.984;2022-11-25T13:16:36;5.63;;;4.33;;
13002;SDS011;6566;57.702;11.984;2022-11-25T13:19:01;8.48;;;4.78;;
13002;SDS011;6566;57.702;11.984;2022-11-25T13:21:32;7.18;;;4.05;;
13002;SDS011;6566;57.702;11.984;2022-11-25T13:23:57;6.18;;;4.20;;
13002;SDS011;6566;57.702;11.984;2022-11-25T13:28:59;6.93;;;4.82;;
13002;SDS011;6566;57.702;11.984;2022-11-25T13:31:29;6.65;;;3.85;;
13002;SDS011;6566;57.702;11.984;2022-11-25T13:33:58;8.02;;;4.25;;
13002;SDS011;6566;57.702;11.984;2022-11-25T13:36:42;7.18;;;4.20;;
13002;SDS011;6566;57.702;11.984;2022-11-25T13:39:11;5.85;;;3.67;;
13002;SDS011;6566;57.702;11.984;2022-11-25T13:41:42;5.45;;;4.05;;
13002;SDS011;6566;57.702;11.984;2022-11-25T13:44:18;5.60;;;4.18;;
13002;SDS011;6566;57.702;11.984;2022-11-25T13:46:45;6.82;;;4.28;;
13002;SDS011;6566;57.702;11.984;2022-11-25T13:49:21;7.28;;;4.53;;
13002;SDS011;6566;57.702;11.984;2022-11-25T13:51:52;7.30;;;4.35;;
13002;SDS011;6566;57.702;11.984;2022-11-25T13:54:19;6.47;;;4.43;;
13002;SDS011;6566;57.702;11.984;2022-11-25T13:57:33;7.90;;;4.22;;
13002;SDS011;6566;57.702;11.984;2022-11-25T13:59:35;6.82;;;4.45;;
13002;SDS011;6566;57.702;11.984;2022-11-25T14:04:48;8.07;;;4.53;;
13002;SDS011;6566;57.702;11.984;2022-11-25T14:07:19;6.70;;;5.03;;
13002;SDS011;6566;57.702;11.984;2022-11-25T14:20:24;5.68;;;4.28;;
13002;SDS011;6566;57.702;11.984;2022-11-25T14:25:51;9.27;;;5.10;;
13002;SDS011;6566;57.702;11.984;2022-11-25T14:30:47;8.48;;;4.15;;
13002;SDS011;6566;57.702;11.984;2022-11-25T14:33:15;7.97;;;5.05;;
13002;SDS011;6566;57.702;11.984;2022-11-25T14:35:48;7.32;;;4.38;;
13002;SDS011;6566;57.702;11.984;2022-11-25T14:38:16;7.50;;;4.82;;
13002;SDS011;6566;57.702;11.984;2022-11-25T14:40:44;9.10;;;4.97;;
13002;SDS011;6566;57.702;11.984;2022-11-25T14:43:12;10.07;;;4.90;;
13002;SDS011;6566;57.702;11.984;2022-11-25T14:45:38;7.43;;;4.47;;
13002;SDS011;6566;57.702;11.984;2022-11-25T14:48:14;6.45;;;4.22;;
13002;SDS011;6566;57.702;11.984;2022-11-25T14:50:39;8.48;;;4.53;;
13002;SDS011;6566;57.702;11.984;2022-11-25T14:53:08;6.30;;;4.30;;
13002;SDS011;6566;57.702;11.984;2022-11-25T14:55:34;8.02;;;5.22;;
13002;SDS011;6566;57.702;11.984;2022-11-25T14:57:59;7.03;;;4.60;;
13002;SDS011;6566;57.702;11.984;2022-11-25T15:00:24;7.30;;;4.38;;
13002;SDS011;6566;57.702;11.984;2022-11-25T15:05:19;6.38;;;4.30;;
13002;SDS011;6566;57.702;11.984;2022-11-25T15:07:58;6.13;;;4.30;;
13002;SDS011;6566;57.702;11.984;2022-11-25T15:12:52;7.45;;;3.80;;
13002;SDS011;6566;57.702;11.984;2022-11-25T15:15:18;6.82;;;4.35;;
13002;SDS011;6566;57.702;11.984;2022-11-25T15:17:43;6.03;;;4.32;;
13002;SDS011;6566;57.702;11.984;2022-11-25T15:20:12;7.40;;;4.32;;
13002;SDS011;6566;57.702;11.984;2022-11-25T15:22:44;5.90;;;4.55;;
13002;SDS011;6566;57.702;11.984;2022-11-25T15:25:11;6.78;;;4.28;;
13002;SDS011;6566;57.702;11.984;2022-11-25T15:27:45;6.28;;;4.18;;
13002;SDS011;6566;57.702;11.984;2022-11-25T15:30:22;5.32;;;4.00;;
13002;SDS011;6566;57.702;11.984;2022-11-25T15:32:48;7.50;;;4.53;;
13002;SDS011;6566;57.702;11.984;2022-11-25T15:35:21;7.22;;;4.15;;
13002;SDS011;6566;57.702;11.984;2022-11-25T15:37:47;8.45;;;3.75;;
13002;SDS011;6566;57.702;11.984;2022-11-25T15:43:20;5.80;;;3.90;;
13002;SDS011;6566;57.702;11.984;2022-11-25T15:45:47;8.57;;;4.32;;
13002;SDS011;6566;57.702;11.984;2022-11-25T15:48:15;7.65;;;4.75;;
13002;SDS011;6566;57.702;11.984;2022-11-25T15:50:41;5.00;;;3.92;;
13002;SDS011;6566;57.702;11.984;2022-11-25T15:53:06;7.25;;;4.47;;
13002;SDS011;6566;57.702;11.984;2022-11-25T15:57:58;4.97;;;3.63;;
13002;SDS011;6566;57.702;11.984;2022-11-25T16:00:25;7.85;;;3.80;;
13002;SDS011;6566;57.702;11.984;2022-11-25T16:02:52;6.63;;;4.15;;
13002;SDS011;6566;57.702;11.984;2022-11-25T16:05:27;4.97;;;3.67;;
13002;SDS011;6566;57.702;11.984;2022-11-25T16:12:44;5.20;;;3.83;;
13002;SDS011;6566;57.702;11.984;2022-11-25T16:15:15;6.50;;;3.90;;
13002;SDS011;6566;57.702;11.984;2022-11-25T16:17:41;7.10;;;3.88;;
13002;SDS011;6566;57.702;11.984;2022-11-25T16:20:15;4.55;;;3.90;;
13002;SDS011;6566;57.702;11.984;2022-11-25T16:22:41;5.50;;;3.85;;
13002;SDS011;6566;57.702;11.984;2022-11-25T16:25:07;4.65;;;3.30;;
13002;SDS011;6566;57.702;11.984;2022-11-25T16:27:35;6.07;;;3.33;;
13002;SDS011;6566;57.702;11.984;2022-11-25T16:32:30;5.88;;;3.53;;
13002;SDS011;6566;57.702;11.984;2022-11-25T16:34:56;4.60;;;3.50;;
13002;SDS011;6566;57.702;11.984;2022-11-25T16:37:24;7.05;;;3.70;;
13002;SDS011;6566;57.702;11.984;2022-11-25T16:39:49;8.80;;;4.10;;
13002;SDS011;6566;57.702;11.984;2022-11-25T16:42:19;7.10;;;3.53;;
13002;SDS011;6566;57.702;11.984;2022-11-25T16:44:46;5.65;;;3.92;;